Time;durP1;ratioP1;P1;durP2;ratioP2;P2;SDS_P1;SDS_P2;PMS_P1;PMS_P2;Temp;Humidity;BMP_temperature;BMP_pressure;BME280_temperature;BME280_humidity;BME280_pressure;Samples;Min_cycle;Max_cycle;Signal;HPM_P1;HPM_P2
2021/08/05 00:00:01;;;;;;;26.97;25.40;;;17.90;85.30;;;;;;5047360;28;20465;-72
2021/08/05 00:02:28;;;;;;;26.73;24.97;;;17.90;85.50;;;;;;5035419;28;20871;-72
2021/08/05 00:04:55;;;;;;;27.63;25.90;;;17.90;85.40;;;;;;5039377;28;20461;-72
2021/08/05 00:07:22;;;;;;;26.10;24.60;;;17.90;85.40;;;;;;5044787;28;20674;-72
2021/08/05 00:09:50;;;;;;;25.43;23.93;;;17.90;85.40;;;;;;5045369;28;20466;-72
2021/08/05 00:12:17;;;;;;;25.93;24.43;;;17.80;85.60;;;;;;5043617;28;21082;-72
2021/08/05 00:14:44;;;;;;;24.63;23.33;;;17.80;85.80;;;;;;5041492;28;20574;-73
2021/08/05 00:17:12;;;;;;;27.90;26.30;;;17.80;86.10;;;;;;5043564;28;20481;-72
2021/08/05 00:19:39;;;;;;;26.40;24.80;;;17.80;86.00;;;;;;5038875;28;20477;-72
2021/08/05 00:22:06;;;;;;;26.03;24.63;;;17.70;86.00;;;;;;5044104;28;20457;-72
2021/08/05 00:24:33;;;;;;;27.37;25.87;;;17.80;85.90;;;;;;5034489;28;20471;-72
2021/08/05 00:27:01;;;;;;;24.90;23.70;;;17.70;85.90;;;;;;5038761;28;20549;-73
2021/08/05 00:29:28;;;;;;;24.33;23.13;;;17.70;86.00;;;;;;5044506;28;20463;-72
2021/08/05 00:31:55;;;;;;;24.70;23.50;;;17.70;85.90;;;;;;5043894;28;20941;-72
2021/08/05 00:34:22;;;;;;;23.83;22.63;;;17.70;85.70;;;;;;5043038;28;20517;-73
2021/08/05 00:36:49;;;;;;;24.27;23.03;;;17.70;85.80;;;;;;5034339;28;20778;-73
2021/08/05 00:39:16;;;;;;;27.07;25.40;;;17.70;85.90;;;;;;5039111;28;20464;-72
2021/08/05 00:41:42;;;;;;;27.40;25.70;;;17.70;86.20;;;;;;5033231;28;20953;-73
2021/08/05 00:44:11;;;;;;;27.00;25.40;;;17.60;86.50;;;;;;5039325;28;20468;-73
2021/08/05 00:46:38;;;;;;;24.43;23.03;;;17.70;86.60;;;;;;5038843;28;20491;-73
2021/08/05 00:49:05;;;;;;;24.87;23.40;;;17.70;86.50;;;;;;5037542;28;20455;-73
2021/08/05 00:51:32;;;;;;;26.90;25.13;;;17.70;86.60;;;;;;5046624;28;20462;-72
2021/08/05 00:53:58;;;;;;;24.77;23.17;;;17.70;86.80;;;;;;5034375;28;20478;-72
2021/08/05 00:56:26;;;;;;;25.13;23.63;;;17.60;86.80;;;;;;5042181;28;20477;-72
2021/08/05 00:58:53;;;;;;;29.70;27.50;;;17.60;86.70;;;;;;5036739;28;20901;-73
2021/08/05 01:01:25;;;;;;;29.97;27.97;;;17.60;86.80;;;;;;5038541;28;21041;-73
2021/08/05 01:03:55;;;;;;;25.60;24.20;;;17.60;87.10;;;;;;5034939;28;20460;-73
2021/08/05 01:06:33;;;;;;;23.70;22.40;;;17.50;87.30;;;;;;5042490;28;20911;-72
2021/08/05 01:09:04;;;;;;;28.83;26.97;;;17.50;87.60;;;;;;5038769;28;20824;-72
2021/08/05 01:11:36;;;;;;;25.17;23.57;;;17.50;87.40;;;;;;5045871;28;20996;-72
2021/08/05 01:14:06;;;;;;;24.03;22.83;;;17.60;87.10;;;;;;5045608;28;20455;-72
2021/08/05 01:16:37;;;;;;;25.27;23.77;;;17.60;87.00;;;;;;5042013;28;20857;-72
2021/08/05 01:19:12;;;;;;;22.70;21.50;;;17.50;87.20;;;;;;5041410;28;20558;-72
2021/08/05 01:21:49;;;;;;;24.20;22.80;;;17.60;87.30;;;;;;5041644;28;20466;-72
2021/08/05 01:24:21;;;;;;;24.43;23.13;;;17.60;86.90;;;;;;5043129;28;20482;-73
2021/08/05 01:27:02;;;;;;;23.93;22.63;;;17.50;86.80;;;;;;5043298;28;20486;-72
2021/08/05 01:29:33;;;;;;;23.40;22.10;;;17.40;87.30;;;;;;5035575;28;20462;-73
2021/08/05 01:32:02;;;;;;;24.30;22.97;;;17.40;87.20;;;;;;5044625;28;20459;-73
2021/08/05 01:34:29;;;;;;;25.60;24.10;;;17.40;87.30;;;;;;5040830;28;20467;-73
2021/08/05 01:36:57;;;;;;;25.03;23.63;;;17.40;87.30;;;;;;5042399;28;20478;-73
2021/08/05 01:39:24;;;;;;;25.73;24.23;;;17.40;87.20;;;;;;5046807;28;20832;-72
2021/08/05 01:41:52;;;;;;;23.77;22.57;;;17.50;87.20;;;;;;5045973;28;20998;-73
2021/08/05 01:44:21;;;;;;;27.20;25.57;;;17.40;87.30;;;;;;5041044;28;20828;-72
2021/08/05 01:46:49;;;;;;;25.20;23.60;;;17.30;87.70;;;;;;5044088;28;20864;-73
2021/08/05 01:49:16;;;;;;;25.30;23.80;;;17.30;88.00;;;;;;5044650;28;20529;-73
2021/08/05 01:51:44;;;;;;;24.27;22.97;;;17.30;88.20;;;;;;5043542;28;20969;-73
2021/08/05 01:54:11;;;;;;;24.77;23.27;;;17.30;88.20;;;;;;5041508;28;20470;-73
2021/08/05 01:56:38;;;;;;;23.63;22.10;;;17.30;88.30;;;;;;5041135;28;20502;-73
2021/08/05 01:59:05;;;;;;;24.47;22.90;;;17.30;88.00;;;;;;5036725;28;20459;-73
2021/08/05 02:01:33;;;;;;;22.80;21.57;;;17.30;88.00;;;;;;5037173;28;20494;-73
2021/08/05 02:04:11;;;;;;;24.40;23.00;;;17.40;87.90;;;;;;5049763;28;20542;-73
2021/08/05 02:06:52;;;;;;;23.30;21.90;;;17.40;88.00;;;;;;5046464;28;20481;-73
2021/08/05 02:09:25;;;;;;;22.27;21.17;;;17.40;87.90;;;;;;5045894;28;20467;-73
2021/08/05 02:11:54;;;;;;;22.23;21.03;;;17.30;88.10;;;;;;5042939;28;20838;-72
2021/08/05 02:14:22;;;;;;;23.80;22.50;;;17.30;88.10;;;;;;5047216;28;20455;-73
2021/08/05 02:16:52;;;;;;;23.20;21.90;;;17.30;88.30;;;;;;5039720;28;20555;-73
2021/08/05 02:19:19;;;;;;;22.77;21.37;;;17.30;88.40;;;;;;5045886;28;20979;-72
2021/08/05 02:21:46;;;;;;;23.83;22.40;;;17.30;88.70;;;;;;5044729;28;20542;-73
2021/08/05 02:24:17;;;;;;;23.63;22.33;;;17.30;88.30;;;;;;5037019;28;20459;-73
2021/08/05 02:26:44;;;;;;;24.97;23.53;;;17.30;88.20;;;;;;5041601;28;20474;-73
2021/08/05 02:29:12;;;;;;;24.90;23.40;;;17.30;88.30;;;;;;5042509;28;20466;-73
2021/08/05 02:31:39;;;;;;;23.50;22.10;;;17.30;88.30;;;;;;5043907;28;20463;-73
2021/08/05 02:34:09;;;;;;;23.80;22.50;;;17.30;88.40;;;;;;5035415;28;20451;-73
2021/08/05 02:36:37;;;;;;;23.60;22.27;;;17.20;88.80;;;;;;5040212;28;21030;-72
2021/08/05 02:39:05;;;;;;;25.13;23.73;;;17.20;88.80;;;;;;5046129;28;20542;-73
2021/08/05 02:41:32;;;;;;;22.40;21.10;;;17.20;88.60;;;;;;5039126;28;20506;-72
2021/08/05 02:44:00;;;;;;;22.57;21.17;;;17.20;88.50;;;;;;5049549;28;20467;-73
2021/08/05 02:46:28;;;;;;;23.60;22.00;;;17.20;88.50;;;;;;5034226;28;20856;-72
2021/08/05 02:48:55;;;;;;;24.53;23.13;;;17.10;88.50;;;;;;5041016;28;20483;-73
2021/08/05 02:51:24;;;;;;;23.57;22.07;;;17.10;88.80;;;;;;5043323;28;20457;-73
2021/08/05 02:53:52;;;;;;;25.67;24.07;;;17.10;89.10;;;;;;5033196;28;20468;-73
2021/08/05 02:56:19;;;;;;;23.77;22.27;;;17.00;89.00;;;;;;5045328;28;20484;-73
2021/08/05 02:58:47;;;;;;;23.37;21.87;;;17.10;88.80;;;;;;5048270;28;20443;-72
2021/08/05 03:01:15;;;;;;;26.63;25.00;;;17.00;88.70;;;;;;5045427;28;20565;-72
2021/08/05 03:03:42;;;;;;;24.03;22.73;;;17.00;88.90;;;;;;5040325;28;20463;-73
2021/08/05 03:06:11;;;;;;;22.20;20.90;;;16.90;89.00;;;;;;5043859;28;20882;-73
2021/08/05 03:08:41;;;;;;;24.27;22.63;;;16.90;90.10;;;;;;5047890;28;20571;-73
2021/08/05 03:11:08;;;;;;;22.87;21.47;;;16.90;89.70;;;;;;5046869;28;20799;-73
2021/08/05 03:13:35;;;;;;;23.50;22.07;;;16.90;89.70;;;;;;5045742;28;21032;-73
2021/08/05 03:16:02;;;;;;;26.43;25.07;;;16.90;89.40;;;;;;5045949;28;20463;-73
2021/08/05 03:18:29;;;;;;;24.50;23.10;;;16.80;89.50;;;;;;5047374;28;20534;-73
2021/08/05 03:20:56;;;;;;;25.13;23.73;;;16.80;89.60;;;;;;5047719;28;20491;-72
2021/08/05 03:23:23;;;;;;;25.73;24.23;;;16.70;90.00;;;;;;5037166;28;20456;-73
2021/08/05 03:25:51;;;;;;;22.97;21.57;;;16.70;90.10;;;;;;5041557;28;20966;-72
2021/08/05 03:28:18;;;;;;;24.40;23.00;;;16.70;90.00;;;;;;5045332;28;20474;-73
2021/08/05 03:30:45;;;;;;;26.60;25.00;;;16.70;90.00;;;;;;5046731;28;20494;-73
2021/08/05 03:33:12;;;;;;;25.60;24.10;;;16.70;90.00;;;;;;5036496;28;20476;-73
2021/08/05 03:35:38;;;;;;;22.90;21.60;;;16.60;90.10;;;;;;5043764;28;20953;-72
2021/08/05 03:38:05;;;;;;;24.97;23.47;;;16.70;90.20;;;;;;5039208;28;20563;-72
2021/08/05 03:40:32;;;;;;;25.17;23.87;;;16.60;90.20;;;;;;5041169;28;20455;-72
2021/08/05 03:43:01;;;;;;;23.83;22.37;;;16.60;90.30;;;;;;5044345;28;20577;-72
2021/08/05 03:45:28;;;;;;;22.97;21.67;;;16.60;90.20;;;;;;5040002;28;20887;-72
2021/08/05 03:47:54;;;;;;;23.60;22.30;;;16.70;90.10;;;;;;5046189;28;20561;-72
2021/08/05 03:50:21;;;;;;;26.90;25.10;;;16.70;90.00;;;;;;5039193;28;20965;-72
2021/08/05 03:52:48;;;;;;;27.97;26.17;;;16.60;90.00;;;;;;5045168;28;20471;-72
2021/08/05 03:55:16;;;;;;;27.13;25.53;;;16.60;90.30;;;;;;5039209;28;20468;-72
2021/08/05 03:57:44;;;;;;;24.50;22.90;;;16.60;90.40;;;;;;5047511;28;20471;-72
2021/08/05 04:00:15;;;;;;;25.63;24.13;;;16.60;90.40;;;;;;5039522;28;20490;-72
2021/08/05 04:02:42;;;;;;;29.40;27.30;;;16.60;90.50;;;;;;5042741;28;20554;-73
2021/08/05 04:05:11;;;;;;;26.23;24.73;;;16.60;90.40;;;;;;5036736;28;20491;-73
2021/08/05 04:07:38;;;;;;;26.27;24.83;;;16.60;90.30;;;;;;5047863;28;20490;-73
2021/08/05 04:10:06;;;;;;;22.97;21.70;;;16.60;90.90;;;;;;5048854;28;20503;-73
2021/08/05 04:12:33;;;;;;;23.90;22.50;;;16.60;90.90;;;;;;5043765;28;20558;-73
2021/08/05 04:15:00;;;;;;;24.27;22.70;;;16.70;90.60;;;;;;5044335;28;20478;-73
2021/08/05 04:17:28;;;;;;;26.60;25.07;;;16.60;90.70;;;;;;5038066;28;20502;-73
2021/08/05 04:19:55;;;;;;;24.20;22.80;;;16.70;90.70;;;;;;5045381;28;20482;-73
2021/08/05 04:22:22;;;;;;;24.43;23.00;;;16.70;90.70;;;;;;5041520;28;21023;-73
2021/08/05 04:24:49;;;;;;;24.20;22.70;;;16.70;91.00;;;;;;5041642;28;20475;-73
2021/08/05 04:27:16;;;;;;;24.00;22.50;;;16.80;90.80;;;;;;5043726;28;20514;-73
2021/08/05 04:29:43;;;;;;;25.10;23.60;;;16.80;90.70;;;;;;5042782;28;20449;-74
2021/08/05 04:32:09;;;;;;;23.37;22.07;;;16.80;90.70;;;;;;5040379;28;20536;-72
2021/08/05 04:34:38;;;;;;;23.03;21.80;;;16.90;90.20;;;;;;5037027;28;20586;-75
2021/08/05 04:37:05;;;;;;;23.27;22.07;;;17.00;90.00;;;;;;5045116;28;20477;-73
2021/08/05 04:39:32;;;;;;;23.80;22.40;;;17.10;89.70;;;;;;5042958;28;21047;-72
2021/08/05 04:41:59;;;;;;;25.17;23.37;;;17.20;89.20;;;;;;5039435;28;20463;-72
2021/08/05 04:44:26;;;;;;;26.20;24.73;;;17.30;88.80;;;;;;5037956;28;20494;-72
2021/08/05 04:46:52;;;;;;;23.67;22.37;;;17.30;89.00;;;;;;5045664;28;20475;-72
2021/08/05 04:49:19;;;;;;;24.87;23.47;;;17.30;88.70;;;;;;5041707;28;20484;-72
2021/08/05 04:51:47;;;;;;;26.70;25.10;;;17.40;88.70;;;;;;5041826;28;20461;-74
2021/08/05 04:54:14;;;;;;;24.50;23.10;;;17.40;88.50;;;;;;5036511;28;20646;-74
2021/08/05 04:56:41;;;;;;;24.63;23.23;;;17.40;88.90;;;;;;5042313;28;20481;-72
2021/08/05 04:59:08;;;;;;;24.33;22.80;;;17.40;89.10;;;;;;5039567;28;20479;-73
2021/08/05 05:01:35;;;;;;;25.90;24.40;;;17.50;88.70;;;;;;5040938;28;20472;-72
2021/08/05 05:04:02;;;;;;;25.53;24.13;;;17.50;88.50;;;;;;5045652;28;20454;-72
2021/08/05 05:06:29;;;;;;;25.37;23.60;;;17.50;88.00;;;;;;5044112;28;20525;-71
2021/08/05 05:08:58;;;;;;;27.30;25.47;;;17.50;87.90;;;;;;5043274;28;20507;-72
2021/08/05 05:11:24;;;;;;;25.80;24.00;;;17.50;88.10;;;;;;5038722;28;20495;-72
2021/08/05 05:13:51;;;;;;;25.60;24.20;;;17.50;88.40;;;;;;5046546;28;20465;-73
2021/08/05 05:16:18;;;;;;;27.40;25.90;;;17.60;88.10;;;;;;5040310;28;20845;-72
2021/08/05 05:18:45;;;;;;;26.40;24.87;;;17.60;87.90;;;;;;5051529;28;20487;-72
2021/08/05 05:21:12;;;;;;;24.23;22.70;;;17.70;87.60;;;;;;5050788;28;20534;-73
2021/08/05 05:23:39;;;;;;;25.67;24.17;;;17.70;87.70;;;;;;5043630;28;20553;-74
2021/08/05 05:26:08;;;;;;;24.00;22.60;;;17.70;87.50;;;;;;5043650;28;20596;-72
2021/08/05 05:28:35;;;;;;;23.97;22.67;;;17.70;87.50;;;;;;5051625;28;20483;-72
2021/08/05 05:31:03;;;;;;;27.53;26.03;;;17.70;87.50;;;;;;5049753;28;20458;-72
2021/08/05 05:33:31;;;;;;;26.13;24.70;;;17.70;87.50;;;;;;5044676;28;20452;-72
2021/08/05 05:35:58;;;;;;;24.13;22.70;;;17.70;87.70;;;;;;5040529;28;20540;-72
2021/08/05 05:38:25;;;;;;;24.47;23.03;;;17.80;87.50;;;;;;5046632;28;20492;-73
2021/08/05 05:40:53;;;;;;;24.83;23.43;;;17.70;87.50;;;;;;5048594;28;20848;-73
2021/08/05 05:43:21;;;;;;;28.00;26.20;;;17.90;87.20;;;;;;5042875;28;20469;-72
2021/08/05 05:45:48;;;;;;;25.13;23.63;;;17.70;87.60;;;;;;5049537;28;20542;-73
2021/08/05 05:48:15;;;;;;;28.30;26.60;;;17.80;87.70;;;;;;5041403;28;20569;-73
2021/08/05 05:50:42;;;;;;;26.73;25.00;;;17.90;87.60;;;;;;5043580;28;20455;-73
2021/08/05 05:53:09;;;;;;;25.33;23.73;;;17.80;87.40;;;;;;5046827;28;20566;-72
2021/08/05 05:55:39;;;;;;;27.60;26.00;;;17.90;87.10;;;;;;5042334;28;20470;-73
2021/08/05 05:58:07;;;;;;;25.33;23.93;;;17.90;87.00;;;;;;5050367;28;20479;-73
2021/08/05 06:00:36;;;;;;;25.63;24.13;;;18.00;86.30;;;;;;5040715;28;20466;-74
2021/08/05 06:03:05;;;;;;;25.83;24.33;;;18.00;86.60;;;;;;5050473;28;20487;-75
2021/08/05 06:05:32;;;;;;;29.50;27.30;;;18.00;86.60;;;;;;5043173;28;21730;-72
2021/08/05 06:07:59;;;;;;;25.23;23.40;;;18.10;86.60;;;;;;5051356;28;20918;-73
2021/08/05 06:10:26;;;;;;;26.37;24.70;;;18.20;86.20;;;;;;5043768;28;20973;-73
2021/08/05 06:12:53;;;;;;;25.23;23.80;;;18.30;85.80;;;;;;5045783;28;21179;-73
2021/08/05 06:15:21;;;;;;;27.63;25.90;;;18.50;85.20;;;;;;5048096;28;20485;-73
2021/08/05 06:17:49;;;;;;;26.33;24.63;;;18.60;84.80;;;;;;5044149;28;20489;-73
2021/08/05 06:20:18;;;;;;;27.90;26.20;;;18.80;84.00;;;;;;5043916;28;20513;-72
2021/08/05 06:22:47;;;;;;;26.10;24.50;;;19.00;83.30;;;;;;5051769;28;20828;-73
2021/08/05 06:25:15;;;;;;;29.23;27.30;;;19.20;82.70;;;;;;5048568;28;20467;-73
2021/08/05 06:27:43;;;;;;;29.20;27.40;;;19.40;81.50;;;;;;5044055;28;20562;-74
2021/08/05 06:30:11;;;;;;;26.67;24.97;;;19.60;80.60;;;;;;5049734;28;20806;-72
2021/08/05 06:32:38;;;;;;;30.23;28.40;;;19.70;80.40;;;;;;5038407;28;20451;-73
2021/08/05 06:35:07;;;;;;;25.97;24.30;;;19.80;80.10;;;;;;5048813;28;20466;-72
2021/08/05 06:37:35;;;;;;;26.33;24.87;;;19.90;79.40;;;;;;5047206;28;21090;-73
2021/08/05 06:40:04;;;;;;;26.47;24.70;;;20.00;78.90;;;;;;5045906;28;20861;-76
2021/08/05 06:42:31;;;;;;;27.20;25.53;;;20.20;78.40;;;;;;5043864;28;20453;-75
2021/08/05 06:44:58;;;;;;;31.73;29.67;;;20.40;77.90;;;;;;5048802;28;20462;-77
2021/08/05 06:47:25;;;;;;;28.70;27.00;;;20.50;77.10;;;;;;5051190;28;20475;-72
2021/08/05 06:49:52;;;;;;;28.30;26.50;;;20.60;76.20;;;;;;5049015;28;20495;-73
2021/08/05 06:52:20;;;;;;;27.67;26.07;;;20.70;75.90;;;;;;5050356;28;20550;-73
2021/08/05 06:54:50;;;;;;;27.60;26.00;;;20.80;75.70;;;;;;5045464;28;20816;-73
2021/08/05 06:57:17;;;;;;;28.83;27.03;;;21.00;74.70;;;;;;5049938;28;20554;-73
2021/08/05 06:59:44;;;;;;;30.73;28.83;;;21.10;74.20;;;;;;5039488;28;20543;-73
2021/08/05 07:02:11;;;;;;;28.37;26.57;;;21.30;73.60;;;;;;5049497;28;20455;-73
2021/08/05 07:04:37;;;;;;;28.73;26.83;;;21.40;73.00;;;;;;5037651;28;20463;-73
2021/08/05 07:07:04;;;;;;;30.20;28.30;;;21.50;72.40;;;;;;5044264;28;20476;-73
2021/08/05 07:09:33;;;;;;;28.80;26.83;;;21.70;72.10;;;;;;5037994;28;20486;-73
2021/08/05 07:12:00;;;;;;;29.57;27.50;;;21.90;71.10;;;;;;5051045;28;20454;-73
2021/08/05 07:14:27;;;;;;;30.30;28.43;;;22.00;70.10;;;;;;5036110;28;20451;-73
2021/08/05 07:16:53;;;;;;;29.00;27.20;;;22.20;70.10;;;;;;5038731;28;20482;-73
2021/08/05 07:19:20;;;;;;;38.70;35.10;;;22.30;69.50;;;;;;5031570;28;20560;-73
2021/08/05 07:21:50;;;;;;;30.47;28.63;;;22.40;69.30;;;;;;5039109;28;21059;-73
2021/08/05 07:24:17;;;;;;;30.47;28.77;;;22.40;69.10;;;;;;5043102;28;20455;-74
2021/08/05 07:26:45;;;;;;;31.67;29.57;;;22.60;68.90;;;;;;5040270;28;20542;-74
2021/08/05 07:29:12;;;;;;;28.40;26.57;;;22.70;68.40;;;;;;5034419;28;20483;-74
2021/08/05 07:31:39;;;;;;;29.00;27.37;;;22.90;68.60;;;;;;5039599;28;20451;-75
2021/08/05 07:34:07;;;;;;;31.73;29.63;;;23.00;67.80;;;;;;5048934;28;20554;-75
2021/08/05 07:36:34;;;;;;;32.83;30.73;;;23.10;67.70;;;;;;5047109;28;20899;-75
2021/08/05 07:39:01;;;;;;;29.80;28.00;;;23.20;67.50;;;;;;5032806;28;20463;-74
2021/08/05 07:41:28;;;;;;;29.23;27.67;;;23.40;67.30;;;;;;5050316;28;20535;-75
2021/08/05 07:43:57;;;;;;;31.30;29.50;;;23.50;66.20;;;;;;5040613;28;20463;-74
2021/08/05 07:46:24;;;;;;;32.33;30.57;;;23.50;65.80;;;;;;5048096;28;20478;-74
2021/08/05 07:48:51;;;;;;;31.93;30.20;;;23.50;66.20;;;;;;5044682;28;20479;-74
2021/08/05 07:51:17;;;;;;;29.00;27.17;;;23.70;65.80;;;;;;5042241;28;20460;-74
2021/08/05 07:53:44;;;;;;;31.33;29.57;;;23.80;65.00;;;;;;5033140;28;20553;-74
2021/08/05 07:56:11;;;;;;;29.50;27.80;;;23.80;64.20;;;;;;5035219;28;21023;-74
2021/08/05 07:58:38;;;;;;;28.10;26.50;;;23.60;64.70;;;;;;5030574;28;20539;-75
2021/08/05 08:01:06;;;;;;;29.37;27.57;;;23.70;65.60;;;;;;5043438;28;20452;-74
2021/08/05 08:03:33;;;;;;;30.50;28.70;;;23.70;65.00;;;;;;5037692;28;20452;-74
2021/08/05 08:06:00;;;;;;;31.27;29.30;;;23.70;65.80;;;;;;5043101;28;20456;-75
2021/08/05 08:08:27;;;;;;;28.03;26.33;;;23.90;65.50;;;;;;5039678;28;20453;-74
2021/08/05 08:10:54;;;;;;;28.70;27.10;;;24.00;64.00;;;;;;5036209;28;20456;-75
2021/08/05 08:13:23;;;;;;;30.00;28.40;;;23.80;63.50;;;;;;5034337;28;20459;-75
2021/08/05 08:15:50;;;;;;;30.60;28.90;;;23.50;64.40;;;;;;5045979;28;20516;-74
2021/08/05 08:18:18;;;;;;;28.20;26.37;;;23.40;65.20;;;;;;5045670;28;20479;-75
2021/08/05 08:20:46;;;;;;;31.23;29.33;;;23.30;65.70;;;;;;5042803;28;20555;-74
2021/08/05 08:23:13;;;;;;;31.20;29.20;;;23.10;65.60;;;;;;5030047;28;20490;-75
2021/08/05 08:25:41;;;;;;;31.03;29.00;;;23.10;66.00;;;;;;5041988;28;20470;-74
2021/08/05 08:28:09;;;;;;;29.90;27.93;;;23.10;66.80;;;;;;5043312;28;20837;-74
2021/08/05 08:30:36;;;;;;;29.17;27.40;;;23.20;66.80;;;;;;5046350;28;20475;-74
2021/08/05 08:33:03;;;;;;;29.73;27.80;;;23.30;66.20;;;;;;5046008;28;21150;-74
2021/08/05 08:35:31;;;;;;;29.43;27.73;;;23.40;65.90;;;;;;5043154;28;20462;-74
2021/08/05 08:37:58;;;;;;;27.63;26.10;;;23.40;65.80;;;;;;5043835;28;20478;-80
2021/08/05 08:40:26;;;;;;;31.33;29.47;;;23.30;65.70;;;;;;5040096;28;20455;-78
2021/08/05 08:42:53;;;;;;;28.97;27.37;;;23.30;65.50;;;;;;5032567;28;21049;-76
2021/08/05 08:45:20;;;;;;;29.17;27.57;;;23.50;65.20;;;;;;5045268;28;20592;-78
2021/08/05 08:47:52;;;;;;;32.67;30.67;;;23.50;64.90;;;;;;5040328;28;20471;-77
2021/08/05 08:50:19;;;;;;;28.60;27.00;;;23.70;64.50;;;;;;5048368;28;21006;-75
2021/08/05 08:52:48;;;;;;;30.23;28.53;;;23.70;64.40;;;;;;5046319;28;20463;-77
2021/08/05 08:55:17;;;;;;;31.07;29.17;;;23.70;64.40;;;;;;5046306;28;20996;-77
2021/08/05 08:57:45;;;;;;;33.43;31.43;;;23.90;63.20;;;;;;5053871;28;20493;-79
2021/08/05 09:00:13;;;;;;;32.33;30.33;;;23.90;63.90;;;;;;5051743;28;20538;-81
2021/08/05 09:02:40;;;;;;;32.37;30.10;;;23.90;63.30;;;;;;5055412;28;20458;-81
2021/08/05 09:05:09;;;;;;;28.50;26.70;;;23.90;61.70;;;;;;5053232;28;20542;-79
2021/08/05 09:07:38;;;;;;;28.47;26.87;;;24.00;61.40;;;;;;5046697;28;20480;-79
2021/08/05 09:10:07;;;;;;;145.77;39.43;;;23.90;61.90;;;;;;5045598;28;20489;-82
2021/08/05 09:12:42;;;;;;;29.70;27.77;;;24.00;62.10;;;;;;5039872;28;20533;-83
2021/08/05 09:15:10;;;;;;;27.97;26.47;;;24.00;61.90;;;;;;5044157;28;20483;-82
2021/08/05 09:17:42;;;;;;;28.80;27.17;;;24.10;61.60;;;;;;5042303;28;20479;-83
2021/08/05 09:20:12;;;;;;;28.27;26.53;;;24.10;61.30;;;;;;5056327;28;20941;-83
2021/08/05 09:22:40;;;;;;;28.03;26.43;;;24.20;60.80;;;;;;5054731;28;20456;-80
2021/08/05 09:25:31;;;;;;;30.87;29.13;;;24.20;61.00;;;;;;5049835;28;20466;-81
2021/08/05 09:28:00;;;;;;;28.63;26.83;;;23.80;61.60;;;;;;5043874;28;20483;-79
2021/08/05 09:30:36;;;;;;;30.50;28.80;;;23.60;62.40;;;;;;5052204;28;20950;-79
2021/08/05 09:33:06;;;;;;;31.97;30.20;;;23.60;62.70;;;;;;5050245;28;20983;-80
2021/08/05 09:35:33;;;;;;;31.57;29.87;;;23.70;62.80;;;;;;5047634;28;20466;-76
2021/08/05 09:38:15;;;;;;;29.10;27.40;;;23.80;62.30;;;;;;5044792;28;20475;-77
2021/08/05 09:40:44;;;;;;;31.47;29.83;;;23.90;61.20;;;;;;5047204;28;20457;-77
2021/08/05 09:43:11;;;;;;;31.93;30.40;;;24.00;60.10;;;;;;5047687;28;20466;-77
2021/08/05 09:45:39;;;;;;;29.83;28.07;;;24.10;60.10;;;;;;5049875;28;21008;-76
2021/08/05 09:48:07;;;;;;;28.10;26.50;;;24.30;59.70;;;;;;5039586;28;20472;-77
2021/08/05 09:50:36;;;;;;;31.33;29.73;;;24.30;59.50;;;;;;5047326;28;20506;-78
2021/08/05 09:53:09;;;;;;;28.83;27.33;;;24.50;58.50;;;;;;5048009;28;20860;-76
2021/08/05 09:55:36;;;;;;;31.23;29.53;;;24.70;58.90;;;;;;5048187;28;20497;-76
2021/08/05 09:58:06;;;;;;;29.17;27.57;;;24.80;58.10;;;;;;5039512;28;21002;-76
2021/08/05 10:00:44;;;;;;;29.37;27.67;;;24.90;58.80;;;;;;5046319;28;20455;-77
2021/08/05 10:03:11;;;;;;;30.40;28.80;;;24.90;57.20;;;;;;5037839;28;20949;-77
2021/08/05 10:05:39;;;;;;;28.70;27.10;;;25.00;56.80;;;;;;5041155;28;20489;-77
2021/08/05 10:08:06;;;;;;;28.27;26.67;;;25.10;57.40;;;;;;5046188;28;20509;-77
2021/08/05 10:10:49;;;;;;;28.17;26.67;;;25.10;57.70;;;;;;5047860;28;20983;-76
2021/08/05 10:13:28;;;;;;;32.67;30.97;;;25.20;57.40;;;;;;5043930;28;20447;-76
2021/08/05 10:15:57;;;;;;;27.37;25.87;;;25.30;57.50;;;;;;5046892;28;20948;-78
2021/08/05 10:18:29;;;;;;;27.90;26.40;;;25.30;57.00;;;;;;5042245;28;20443;-77
2021/08/05 10:20:58;;;;;;;27.33;25.83;;;25.00;56.80;;;;;;5050110;28;20447;-78
2021/08/05 10:23:26;;;;;;;31.30;29.63;;;24.90;56.90;;;;;;5047740;28;20505;-77
2021/08/05 10:25:56;;;;;;;30.40;28.70;;;24.90;57.50;;;;;;5049783;28;20792;-77
2021/08/05 10:28:23;;;;;;;28.07;26.47;;;25.00;57.80;;;;;;5041334;28;20535;-76
2021/08/05 10:30:53;;;;;;;29.80;28.07;;;25.10;57.80;;;;;;5047717;28;20474;-77
2021/08/05 10:33:20;;;;;;;30.13;28.53;;;25.10;57.70;;;;;;5041611;28;20458;-77
2021/08/05 10:35:48;;;;;;;29.17;27.37;;;25.20;57.50;;;;;;5049633;28;20474;-77
2021/08/05 10:38:17;;;;;;;29.77;28.03;;;25.40;57.50;;;;;;5049134;28;20478;-77
2021/08/05 10:40:44;;;;;;;28.43;26.83;;;25.60;57.10;;;;;;5047362;28;20450;-77
2021/08/05 10:43:13;;;;;;;32.80;31.30;;;25.70;56.00;;;;;;5034427;28;20570;-77
2021/08/05 10:45:40;;;;;;;31.87;29.97;;;25.70;54.20;;;;;;5045321;28;20455;-77
2021/08/05 10:48:09;;;;;;;27.60;26.10;;;25.80;54.30;;;;;;5043566;28;20558;-77
2021/08/05 10:50:41;;;;;;;27.00;25.50;;;26.10;53.40;;;;;;5046199;28;20558;-77
2021/08/05 10:53:13;;;;;;;31.03;29.33;;;26.20;53.70;;;;;;5041838;28;20471;-76
2021/08/05 10:55:41;;;;;;;29.57;27.77;;;26.40;54.00;;;;;;5042123;28;20475;-77
2021/08/05 10:58:17;;;;;;;27.90;26.30;;;26.50;53.90;;;;;;5039667;28;20566;-76
2021/08/05 11:00:54;;;;;;;32.13;30.53;;;26.60;53.50;;;;;;5043814;28;20448;-76
2021/08/05 11:03:47;;;;;;;29.33;27.67;;;26.70;53.80;;;;;;5039462;28;20814;-76
2021/08/05 11:06:31;;;;;;;30.30;28.50;;;26.90;53.50;;;;;;5029945;28;20489;-78
2021/08/05 11:09:26;;;;;;;31.63;29.83;;;26.90;54.60;;;;;;5045483;28;20511;-76
2021/08/05 11:11:53;;;;;;;29.80;28.00;;;26.90;54.30;;;;;;5037230;28;20456;-77
2021/08/05 11:14:40;;;;;;;27.40;25.87;;;27.00;53.60;;;;;;5046282;28;20451;-77
2021/08/05 11:17:07;;;;;;;28.30;26.70;;;26.80;53.00;;;;;;5038033;28;20558;-74
2021/08/05 11:19:43;;;;;;;32.87;31.03;;;26.50;52.90;;;;;;5043798;28;20469;-74
2021/08/05 11:22:52;;;;;;;31.60;29.90;;;25.90;54.00;;;;;;5041581;28;20465;-73
2021/08/05 11:25:21;;;;;;;27.60;26.10;;;26.10;54.20;;;;;;5034795;28;20912;-74
2021/08/05 11:28:19;;;;;;;28.20;26.60;;;26.20;54.30;;;;;;5044655;28;20487;-73
2021/08/05 11:30:48;;;;;;;27.40;25.90;;;26.50;54.20;;;;;;5032048;28;20842;-73
2021/08/05 11:33:51;;;;;;;32.03;30.30;;;26.70;53.90;;;;;;5037519;28;20491;-73
2021/08/05 11:36:22;;;;;;;27.10;25.50;;;26.90;53.20;;;;;;5039538;28;20467;-73
2021/08/05 11:39:00;;;;;;;31.30;29.50;;;26.90;52.10;;;;;;5046103;28;20466;-73
2021/08/05 11:41:44;;;;;;;27.57;26.07;;;26.50;52.80;;;;;;5049437;28;20462;-73
2021/08/05 11:44:25;;;;;;;28.87;27.17;;;26.30;53.60;;;;;;5038919;28;21625;-74
2021/08/05 11:47:10;;;;;;;28.30;26.70;;;26.10;54.30;;;;;;5046062;28;21878;-74
2021/08/05 11:49:38;;;;;;;31.43;29.73;;;26.10;54.70;;;;;;5035396;28;20467;-74
2021/08/05 11:52:10;;;;;;;28.80;27.10;;;26.20;55.10;;;;;;5038693;28;20471;-74
2021/08/05 11:54:38;;;;;;;32.03;30.17;;;26.40;55.20;;;;;;5042272;28;21281;-72
2021/08/05 11:57:07;;;;;;;28.17;26.57;;;26.50;54.90;;;;;;5041223;28;20475;-73
2021/08/05 11:59:37;;;;;;;30.47;28.77;;;26.70;54.40;;;;;;5039233;28;20617;-74
2021/08/05 12:02:09;;;;;;;27.90;26.40;;;26.70;53.50;;;;;;5038823;28;20453;-73
2021/08/05 12:04:37;;;;;;;29.53;27.83;;;26.80;54.00;;;;;;5045576;28;20476;-72
2021/08/05 12:07:20;;;;;;;31.83;29.93;;;26.80;54.10;;;;;;5047317;28;20487;-73
2021/08/05 12:09:54;;;;;;;31.10;29.30;;;27.00;53.50;;;;;;5041987;28;20494;-73
2021/08/05 12:12:21;;;;;;;28.30;26.50;;;27.10;53.50;;;;;;5042109;28;20467;-74
2021/08/05 12:14:53;;;;;;;29.60;27.90;;;26.90;53.50;;;;;;5038672;28;20554;-74
2021/08/05 12:17:39;;;;;;;32.40;30.60;;;26.90;53.60;;;;;;5045854;28;20483;-74
2021/08/05 12:20:10;;;;;;;31.10;29.40;;;26.90;53.10;;;;;;5044707;28;20463;-75
2021/08/05 12:22:39;;;;;;;31.63;29.83;;;26.50;54.00;;;;;;5039803;28;20459;-75
2021/08/05 12:25:11;;;;;;;30.40;28.63;;;26.70;54.50;;;;;;5041356;28;20949;-75
2021/08/05 12:27:39;;;;;;;30.83;28.97;;;26.90;54.00;;;;;;5041578;28;20563;-74
2021/08/05 12:30:09;;;;;;;30.63;28.93;;;27.20;53.70;;;;;;5037992;28;20456;-75
2021/08/05 12:32:56;;;;;;;30.80;29.00;;;27.50;54.10;;;;;;5035651;28;20464;-75
2021/08/05 12:35:22;;;;;;;33.47;31.27;;;27.60;53.60;;;;;;5038304;28;20455;-74